createdAt,value
2023-03-08T00:00:29.511Z,11.95
2023-03-08T00:05:33.204Z,14.27
2023-03-08T00:10:34.766Z,11.23
2023-03-08T00:15:38.153Z,13.38
2023-03-08T00:20:39.673Z,11.77
2023-03-08T00:25:41.191Z,13.98
2023-03-08T00:30:42.686Z,12.77
2023-03-08T00:35:44.276Z,18.52
2023-03-08T00:40:45.830Z,15.27
2023-03-08T00:45:48.779Z,14.13
2023-03-08T00:50:52.206Z,15.27
2023-03-08T00:55:58.641Z,12.65
2023-03-08T01:01:01.282Z,13.85
2023-03-08T01:06:09.577Z,13.00
2023-03-08T01:11:23.941Z,15.07
2023-03-08T01:16:31.484Z,16.33
2023-03-08T01:21:33.657Z,13.65
2023-03-08T01:26:35.229Z,10.88
2023-03-08T01:31:36.931Z,11.82
2023-03-08T01:36:38.510Z,12.00
2023-03-08T01:41:40.062Z,12.43
2023-03-08T01:46:41.862Z,11.75
2023-03-08T01:52:09.802Z,13.55
2023-03-08T01:57:17.504Z,14.13
2023-03-08T02:02:28.253Z,12.63
2023-03-08T02:07:30.657Z,11.98
2023-03-08T02:12:33.965Z,11.88
2023-03-08T02:17:38.526Z,12.68
2023-03-08T02:22:41.772Z,11.10
2023-03-08T02:27:44.208Z,12.73
2023-03-08T02:32:45.884Z,12.10
2023-03-08T02:37:47.579Z,11.98
2023-03-08T02:42:50.691Z,14.20
2023-03-08T02:47:53.352Z,14.45
2023-03-08T02:52:55.315Z,10.20
2023-03-08T02:57:56.938Z,11.80
2023-03-08T03:02:58.638Z,11.02
2023-03-08T03:08:02.347Z,9.82
2023-03-08T03:13:06.300Z,11.20
2023-03-08T03:18:07.928Z,11.50
2023-03-08T03:23:09.511Z,11.02
2023-03-08T03:33:21.296Z,11.95
2023-03-08T03:38:23.510Z,10.95
2023-03-08T03:43:25.129Z,12.10
2023-03-08T03:48:27.488Z,13.45
2023-03-08T03:53:30.664Z,13.68
2023-03-08T03:58:32.686Z,15.35
2023-03-08T04:03:34.616Z,12.05
2023-03-08T04:08:42.280Z,13.15
2023-03-08T04:13:46.990Z,13.85
2023-03-08T04:18:52.875Z,13.00
2023-03-08T04:23:55.041Z,10.60
2023-03-08T04:28:57.476Z,13.77
2023-03-08T04:34:02.418Z,9.88
2023-03-08T04:39:04.297Z,9.43
2023-03-08T04:44:06.297Z,9.45
2023-03-08T04:49:15.657Z,8.63
2023-03-08T04:54:21.198Z,9.77
2023-03-08T04:59:28.862Z,9.10
2023-03-08T05:04:33.289Z,9.43
2023-03-08T05:09:35.390Z,8.63
2023-03-08T05:14:37.262Z,10.07
2023-03-08T05:19:38.878Z,8.38
2023-03-08T05:24:41.700Z,10.98
2023-03-08T05:29:46.120Z,8.85
2023-03-08T05:34:48.641Z,9.18
2023-03-08T05:45:00.152Z,8.82
2023-03-08T05:50:05.808Z,9.38
2023-03-08T05:55:11.074Z,8.02
2023-03-08T06:00:14.726Z,7.72
2023-03-08T06:05:23.882Z,9.63
2023-03-08T06:10:28.874Z,9.88
2023-03-08T06:15:30.580Z,10.00
2023-03-08T06:20:32.972Z,10.52
2023-03-08T06:25:35.253Z,7.95
2023-03-08T06:30:37.179Z,14.50
2023-03-08T06:35:39.880Z,14.77
2023-03-08T06:40:41.489Z,17.13
2023-03-08T06:45:43.142Z,17.05
2023-03-08T06:50:45.239Z,16.60
2023-03-08T06:55:47.164Z,17.02
2023-03-08T07:00:49.279Z,21.13
2023-03-08T07:05:50.817Z,17.00
2023-03-08T07:10:52.544Z,20.08
2023-03-08T07:15:54.201Z,19.83
2023-03-08T07:20:56.628Z,18.05
2023-03-08T07:25:58.257Z,15.07
2023-03-08T07:31:00.467Z,16.67
2023-03-08T07:36:04.599Z,16.48
2023-03-08T07:41:06.281Z,14.82
2023-03-08T07:46:07.812Z,14.88
2023-03-08T07:51:10.318Z,15.45
2023-03-08T07:56:12.014Z,16.02
2023-03-08T08:01:14.687Z,14.48
2023-03-08T08:06:17.651Z,14.88
2023-03-08T08:11:22.508Z,15.40
2023-03-08T08:16:24.261Z,13.25
2023-03-08T08:21:27.177Z,15.07
2023-03-08T08:26:29.093Z,19.35
2023-03-08T08:31:33.306Z,17.75
2023-03-08T08:36:35.098Z,16.35
2023-03-08T08:41:36.742Z,15.70
2023-03-08T08:46:38.275Z,19.17
2023-03-08T08:51:39.842Z,17.50
2023-03-08T08:56:43.151Z,17.30
2023-03-08T09:01:44.906Z,18.33
2023-03-08T09:06:47.300Z,19.30
2023-03-08T09:11:54.981Z,17.83
2023-03-08T09:16:57.357Z,15.48
2023-03-08T09:21:59.067Z,19.10
2023-03-08T09:27:00.684Z,17.65
2023-03-08T09:32:02.280Z,18.15
2023-03-08T09:37:05.822Z,15.30
2023-03-08T09:42:20.577Z,12.65
2023-03-08T09:47:51.587Z,15.13
2023-03-08T09:53:16.534Z,13.93
2023-03-08T09:58:40.713Z,16.65
2023-03-08T10:04:09.888Z,13.38
2023-03-08T10:09:34.454Z,13.65
2023-03-08T10:14:40.408Z,16.70
2023-03-08T10:19:53.182Z,12.98
2023-03-08T10:25:01.972Z,16.20
2023-03-08T10:30:16.977Z,16.20
2023-03-08T10:35:30.118Z,17.17
2023-03-08T10:40:31.756Z,17.05
2023-03-08T10:45:33.629Z,17.45
2023-03-08T10:50:36.937Z,19.92
2023-03-08T10:55:44.282Z,14.13
2023-03-08T11:00:54.354Z,15.85
2023-03-08T11:06:05.949Z,13.23
2023-03-08T11:11:10.244Z,4.18
2023-03-08T11:16:53.373Z,3.78
2023-03-08T11:22:05.085Z,3.22
2023-03-08T11:27:06.620Z,2.60
2023-03-08T11:32:14.186Z,3.03
2023-03-08T11:37:59.754Z,2.65
2023-03-08T11:43:18.378Z,4.22
2023-03-08T11:48:34.214Z,4.28
2023-03-08T11:53:54.703Z,2.47
2023-03-08T11:59:05.441Z,3.67
2023-03-08T12:04:17.367Z,2.00
2023-03-08T12:09:48.806Z,2.78
2023-03-08T12:15:00.348Z,1.95
2023-03-08T12:20:08.171Z,2.70
2023-03-08T12:25:20.784Z,3.53
2023-03-08T12:30:33.640Z,2.85
2023-03-08T12:35:37.173Z,2.88
2023-03-08T12:40:47.508Z,1.77
2023-03-08T12:46:09.676Z,3.83
2023-03-08T12:51:17.156Z,2.53
2023-03-08T12:56:34.373Z,2.97
2023-03-08T13:01:38.216Z,2.83
2023-03-08T13:06:51.636Z,1.67
2023-03-08T13:12:12.074Z,3.33
2023-03-08T13:17:32.371Z,2.03
2023-03-08T13:22:53.062Z,2.25
2023-03-08T13:28:11.462Z,3.80
2023-03-08T13:33:15.859Z,4.63
2023-03-08T13:38:22.073Z,3.85
2023-03-08T13:43:26.482Z,4.07
2023-03-08T13:48:36.110Z,4.32
2023-03-08T13:53:40.260Z,2.97
2023-03-08T13:58:46.701Z,2.40
2023-03-08T14:03:49.475Z,2.63
2023-03-08T14:08:53.562Z,3.78
2023-03-08T14:13:57.024Z,3.95
2023-03-08T14:19:21.800Z,3.83
2023-03-08T14:24:26.896Z,4.20
2023-03-08T14:29:30.520Z,3.05
2023-03-08T14:34:36.414Z,3.17
2023-03-08T14:39:41.656Z,2.50
2023-03-08T14:44:51.649Z,2.40
2023-03-08T14:49:59.450Z,3.20
2023-03-08T14:55:03.336Z,2.22
2023-03-08T15:00:14.540Z,2.58
2023-03-08T15:05:28.319Z,2.80
2023-03-08T15:10:37.355Z,2.22
2023-03-08T15:15:38.909Z,2.13
2023-03-08T15:20:45.016Z,1.40
2023-03-08T15:25:46.546Z,2.13
2023-03-08T15:30:54.596Z,1.27
2023-03-08T15:35:56.355Z,1.60
2023-03-08T15:40:57.906Z,1.02
2023-03-08T15:45:59.518Z,2.03
2023-03-08T15:51:01.198Z,3.10
2023-03-08T15:56:05.117Z,1.13
2023-03-08T16:01:07.157Z,2.80
2023-03-08T16:06:13.206Z,1.73
2023-03-08T16:11:17.384Z,2.40
2023-03-08T16:16:20.064Z,2.85
2023-03-08T16:21:21.608Z,1.60
2023-03-08T16:26:24.205Z,1.73
2023-03-08T16:31:25.767Z,2.10
2023-03-08T16:36:27.267Z,2.67
2023-03-08T16:41:30.075Z,3.63
2023-03-08T16:46:32.346Z,2.00
2023-03-08T16:51:37.303Z,2.40
2023-03-08T16:56:43.408Z,2.42
2023-03-08T17:01:47.301Z,3.08
2023-03-08T17:06:49.802Z,2.00
2023-03-08T17:11:51.322Z,1.05
2023-03-08T17:16:52.901Z,2.35
2023-03-08T17:21:54.536Z,1.95
2023-03-08T17:26:56.124Z,1.27
2023-03-08T17:31:57.660Z,1.23
2023-03-08T17:36:59.183Z,2.17
2023-03-08T17:42:00.672Z,0.80
2023-03-08T17:47:02.210Z,0.88
2023-03-08T17:52:03.837Z,0.80
2023-03-08T17:57:05.407Z,1.00
2023-03-08T18:02:07.019Z,2.85
2023-03-08T18:07:08.558Z,2.05
2023-03-08T18:12:10.208Z,1.27
2023-03-08T18:17:12.530Z,1.10
2023-03-08T18:22:15.667Z,1.63
2023-03-08T18:27:17.335Z,1.13
2023-03-08T18:32:18.978Z,1.30
2023-03-08T18:37:21.626Z,1.92
2023-03-08T18:42:23.243Z,1.95
2023-03-08T18:47:24.854Z,2.50
2023-03-08T18:52:26.403Z,1.50
2023-03-08T18:57:27.955Z,1.90
2023-03-08T19:02:29.753Z,1.83
2023-03-08T19:07:31.379Z,2.75
2023-03-08T19:12:33.696Z,3.22
2023-03-08T19:17:35.260Z,1.65
2023-03-08T19:22:36.857Z,1.65
2023-03-08T19:27:38.362Z,2.53
2023-03-08T19:32:42.493Z,1.90
2023-03-08T19:37:44.214Z,2.72
2023-03-08T19:42:45.767Z,4.07
2023-03-08T19:47:47.281Z,3.70
2023-03-08T19:52:48.850Z,2.20
2023-03-08T19:57:50.364Z,4.38
2023-03-08T20:02:51.903Z,6.13
2023-03-08T20:07:53.424Z,2.85
2023-03-08T20:12:54.958Z,4.47
2023-03-08T20:17:56.582Z,3.80
2023-03-08T20:22:58.114Z,2.83
2023-03-08T20:27:59.603Z,4.07
2023-03-08T20:33:01.130Z,4.25
2023-03-08T20:38:02.728Z,3.83
2023-03-08T20:43:04.346Z,4.50
2023-03-08T20:48:05.966Z,5.22
2023-03-08T20:53:07.463Z,3.83
2023-03-08T20:58:08.977Z,4.70
2023-03-08T21:03:10.656Z,4.85
2023-03-08T21:08:12.161Z,4.82
2023-03-08T21:13:13.889Z,3.28
2023-03-08T21:18:15.416Z,6.05
2023-03-08T21:23:21.284Z,6.50
2023-03-08T21:28:22.935Z,4.50
2023-03-08T21:33:24.447Z,4.82
2023-03-08T21:38:25.982Z,8.35
2023-03-08T21:43:27.473Z,4.10
2023-03-08T21:48:28.957Z,5.32
2023-03-08T21:53:30.512Z,4.88
2023-03-08T21:58:32.025Z,8.70
2023-03-08T22:03:34.715Z,6.55
2023-03-08T22:08:36.290Z,4.88
2023-03-08T22:13:37.790Z,6.85
2023-03-08T22:18:39.816Z,7.55
2023-03-08T22:23:41.330Z,6.20
2023-03-08T22:28:42.975Z,6.32
2023-03-08T22:33:45.299Z,7.80
2023-03-08T22:38:47.213Z,7.57
2023-03-08T22:43:49.588Z,3.70
2023-03-08T22:48:52.524Z,5.70
2023-03-08T22:53:54.071Z,8.68
2023-03-08T22:58:56.090Z,8.10
2023-03-08T23:03:59.521Z,5.43
2023-03-08T23:09:08.897Z,4.10
2023-03-08T23:14:11.450Z,8.82
2023-03-08T23:19:18.547Z,4.82
2023-03-08T23:24:20.256Z,3.53
2023-03-08T23:29:23.881Z,4.47
2023-03-08T23:34:25.420Z,8.15
2023-03-08T23:39:26.991Z,4.78
2023-03-08T23:44:28.683Z,5.82
2023-03-08T23:49:30.315Z,5.70
2023-03-08T23:54:31.807Z,7.78
2023-03-08T23:59:33.355Z,3.53
